Impacts TAF Board
For situational awareness. Not to be used for flight planning purposes.
IDs:

KLBE - Latrobe/Palmer Rgnl, PA, US

Issued at 1720 UTC 01 Feb 2023
Updated at 2150 UTC 01 Feb 2023
Potential Impact None Slight Moderate High
Time<<02/22Z 02/23Z 03/00Z 03/01Z 03/02Z 03/03Z 03/04Z 03/05Z 03/06Z 03/07Z 03/08Z 03/09Z 03/10Z
Type
VIS
CIG
Cover
FltCat
WX
WDir
WSpd
WGst
WSHgt
WSDir
WSSpd

NOTE: LAMP data beyond the time of the TAF data is denoted as LAMP in Type and colored magenta.

Raw TAF
KLBE 011720Z 0118/0218 28008KT P6SM SCT250
  FM020200 22005KT P6SM BKN250
  FM021400 24012G20KT P6SM SCT250


METAR Board
Radar Display
Forecast Discussion

For situational awareness. Not to be used for flight planning purposes.